Time;durP1;ratioP1;P1;durP2;ratioP2;P2;SDS_P1;SDS_P2;PMS_P1;PMS_P2;Temp;Humidity;BMP_temperature;BMP_pressure;BME280_temperature;BME280_humidity;BME280_pressure;Samples;Min_cycle;Max_cycle;Signal;HPM_P1;HPM_P2
2021/05/07 00:00:27;;;;;;;2.47;1.00;;;;;;;;;;1493351;39;20031;-58
2021/05/07 00:01:29;;;;;;;3.92;1.20;;;;;;;;;;1493090;39;20024;-58
2021/05/07 00:02:29;;;;;;;3.45;1.20;;;;;;;;;;1493163;39;20288;-58
2021/05/07 00:03:31;;;;;;;3.53;1.00;;;;;;;;;;1493298;39;20035;-60
2021/05/07 00:04:32;;;;;;;4.10;1.10;;;;;;;;;;1493332;39;20028;-58
2021/05/07 00:05:34;;;;;;;2.28;1.00;;;;;;;;;;1493170;39;20023;-58
2021/05/07 00:06:35;;;;;;;3.60;1.17;;;;;;;;;;1493355;39;20028;-58
2021/05/07 00:07:37;;;;;;;2.92;1.23;;;;;;;;;;1493109;39;20027;-59
2021/05/07 00:08:46;;;;;;;3.95;1.23;;;;;;;;;;1493459;39;20031;-58
2021/05/07 00:09:47;;;;;;;3.28;1.10;;;;;;;;;;1493103;39;20046;-57
2021/05/07 00:10:48;;;;;;;3.67;1.10;;;;;;;;;;1493127;39;20104;-58
2021/05/07 00:11:50;;;;;;;2.65;0.93;;;;;;;;;;1493263;39;20039;-58
2021/05/07 00:12:51;;;;;;;3.85;1.20;;;;;;;;;;1493351;39;20062;-58
2021/05/07 00:13:54;;;;;;;2.65;1.20;;;;;;;;;;1493039;39;20028;-58
2021/05/07 00:14:55;;;;;;;5.20;1.15;;;;;;;;;;1493311;39;20035;-58
2021/05/07 00:15:57;;;;;;;3.05;0.90;;;;;;;;;;1493274;39;20028;-58
2021/05/07 00:16:59;;;;;;;3.65;0.95;;;;;;;;;;1493294;39;20024;-58
2021/05/07 00:18:00;;;;;;;1.98;0.90;;;;;;;;;;1493167;39;20036;-58
2021/05/07 00:19:04;;;;;;;3.58;1.00;;;;;;;;;;1493052;39;20054;-58
2021/05/07 00:20:06;;;;;;;2.83;0.95;;;;;;;;;;1493095;39;20436;-58
2021/05/07 00:21:08;;;;;;;3.38;1.08;;;;;;;;;;1493086;39;20027;-57
2021/05/07 00:22:10;;;;;;;1.58;0.90;;;;;;;;;;1493118;39;20024;-57
2021/05/07 00:23:12;;;;;;;3.00;1.00;;;;;;;;;;1493076;39;20410;-58
2021/05/07 00:24:13;;;;;;;5.88;1.20;;;;;;;;;;1493069;39;20027;-58
2021/05/07 00:25:14;;;;;;;3.25;1.00;;;;;;;;;;1493312;39;20032;-58
2021/05/07 00:26:15;;;;;;;2.15;1.00;;;;;;;;;;1493075;39;20024;-58
2021/05/07 00:27:17;;;;;;;2.53;1.00;;;;;;;;;;1493070;39;20118;-57
2021/05/07 00:28:19;;;;;;;2.17;0.93;;;;;;;;;;1493056;39;20032;-60
2021/05/07 00:29:20;;;;;;;2.47;0.80;;;;;;;;;;1493036;39;20119;-58
2021/05/07 00:30:21;;;;;;;3.75;1.15;;;;;;;;;;1493158;39;20387;-58
2021/05/07 00:31:23;;;;;;;1.25;0.80;;;;;;;;;;1493285;39;20039;-58
2021/05/07 00:32:23;;;;;;;1.45;0.90;;;;;;;;;;1493285;39;20031;-58
2021/05/07 00:33:25;;;;;;;3.35;0.75;;;;;;;;;;1493005;39;20399;-58
2021/05/07 00:34:34;;;;;;;2.35;0.70;;;;;;;;;;1493343;39;20044;-58
2021/05/07 00:35:36;;;;;;;4.40;0.80;;;;;;;;;;1492962;39;20028;-58
2021/05/07 00:36:37;;;;;;;1.40;0.60;;;;;;;;;;1493026;39;20392;-58
2021/05/07 00:37:42;;;;;;;1.92;0.70;;;;;;;;;;1493142;39;20060;-58
2021/05/07 00:38:43;;;;;;;2.58;0.95;;;;;;;;;;1493279;39;20028;-58
2021/05/07 00:39:44;;;;;;;1.50;0.60;;;;;;;;;;1493065;39;20298;-59
2021/05/07 00:40:45;;;;;;;2.05;0.70;;;;;;;;;;1493019;39;20038;-58
2021/05/07 00:41:46;;;;;;;1.23;0.80;;;;;;;;;;1493038;39;20024;-57
2021/05/07 00:42:48;;;;;;;1.58;0.73;;;;;;;;;;1493025;39;20368;-58
2021/05/07 00:43:49;;;;;;;1.55;0.70;;;;;;;;;;1493139;39;20036;-58
2021/05/07 00:44:50;;;;;;;3.10;0.88;;;;;;;;;;1493204;39;20034;-59
2021/05/07 00:45:51;;;;;;;2.50;0.70;;;;;;;;;;1493179;39;20146;-59
2021/05/07 00:46:52;;;;;;;2.22;0.77;;;;;;;;;;1493307;39;20035;-58
2021/05/07 00:47:57;;;;;;;2.03;0.70;;;;;;;;;;1493211;39;20028;-57
2021/05/07 00:48:58;;;;;;;1.27;0.60;;;;;;;;;;1493087;39;20117;-58
2021/05/07 00:50:00;;;;;;;1.05;0.70;;;;;;;;;;1493207;39;20031;-59
2021/05/07 00:51:00;;;;;;;2.50;0.70;;;;;;;;;;1492986;39;20602;-58
2021/05/07 00:52:04;;;;;;;2.03;0.80;;;;;;;;;;1493207;39;20089;-58
2021/05/07 00:53:06;;;;;;;2.22;0.80;;;;;;;;;;1492934;39;20388;-58
2021/05/07 00:54:07;;;;;;;3.22;0.70;;;;;;;;;;1493294;39;20084;-58
2021/05/07 00:55:09;;;;;;;1.55;0.50;;;;;;;;;;1493172;39;20061;-58
2021/05/07 00:56:10;;;;;;;0.95;0.70;;;;;;;;;;1493044;39;20325;-57
2021/05/07 00:57:12;;;;;;;1.27;0.70;;;;;;;;;;1493169;39;20024;-57
2021/05/07 00:58:14;;;;;;;1.67;0.60;;;;;;;;;;1492998;39;20308;-57
2021/05/07 00:59:14;;;;;;;1.60;0.70;;;;;;;;;;1492916;39;20027;-57
2021/05/07 01:00:17;;;;;;;1.30;0.57;;;;;;;;;;1493205;39;20028;-58
2021/05/07 01:01:18;;;;;;;2.35;0.60;;;;;;;;;;1492950;39;20386;-58
2021/05/07 01:02:20;;;;;;;2.40;0.60;;;;;;;;;;1493151;39;20031;-58
2021/05/07 01:03:21;;;;;;;1.75;0.70;;;;;;;;;;1493031;39;20068;-58
2021/05/07 01:04:22;;;;;;;2.53;0.70;;;;;;;;;;1493007;39;20032;-57
2021/05/07 01:05:23;;;;;;;0.75;0.50;;;;;;;;;;1492975;39;20028;-58
2021/05/07 01:06:24;;;;;;;1.52;0.70;;;;;;;;;;1492980;39;20028;-58
2021/05/07 01:07:26;;;;;;;0.88;0.52;;;;;;;;;;1492942;39;20028;-58
2021/05/07 01:08:28;;;;;;;1.58;0.70;;;;;;;;;;1493131;39;20304;-58
2021/05/07 01:09:30;;;;;;;2.00;0.60;;;;;;;;;;1493110;39;20068;-57
2021/05/07 01:10:30;;;;;;;2.33;0.73;;;;;;;;;;1492993;39;20020;-58
2021/05/07 01:11:32;;;;;;;1.15;0.63;;;;;;;;;;1493021;39;20038;-58
2021/05/07 01:12:35;;;;;;;1.45;0.70;;;;;;;;;;1493105;39;20268;-58
2021/05/07 01:13:36;;;;;;;2.47;0.70;;;;;;;;;;1492524;39;20031;-57
2021/05/07 01:14:37;;;;;;;1.80;0.65;;;;;;;;;;1492458;39;20034;-58
2021/05/07 01:15:38;;;;;;;2.13;0.80;;;;;;;;;;1492967;39;20028;-58
2021/05/07 01:16:39;;;;;;;2.30;0.80;;;;;;;;;;1492936;39;20387;-58
2021/05/07 01:17:43;;;;;;;1.40;0.50;;;;;;;;;;1493152;39;20028;-58
2021/05/07 01:18:44;;;;;;;2.50;0.60;;;;;;;;;;1492972;39;20072;-58
2021/05/07 01:19:45;;;;;;;1.38;0.60;;;;;;;;;;1493083;39;20027;-58
2021/05/07 01:20:48;;;;;;;1.85;0.50;;;;;;;;;;1493132;39;20039;-58
2021/05/07 01:21:49;;;;;;;0.73;0.45;;;;;;;;;;1492994;39;20020;-58
2021/05/07 01:22:52;;;;;;;2.55;0.65;;;;;;;;;;1492953;39;20124;-58
2021/05/07 01:23:53;;;;;;;1.90;0.70;;;;;;;;;;1492976;39;20377;-58
2021/05/07 01:24:55;;;;;;;1.70;0.60;;;;;;;;;;1493159;39;20089;-58
2021/05/07 01:25:55;;;;;;;1.55;0.68;;;;;;;;;;1492978;39;20285;-58
2021/05/07 01:26:57;;;;;;;2.60;0.70;;;;;;;;;;1493136;39;20035;-58
2021/05/07 01:27:59;;;;;;;1.05;0.55;;;;;;;;;;1492951;39;20024;-58
2021/05/07 01:29:00;;;;;;;2.50;0.90;;;;;;;;;;1493050;39;20031;-57
2021/05/07 01:30:06;;;;;;;1.02;0.50;;;;;;;;;;1492378;39;20026;-58
2021/05/07 01:31:07;;;;;;;1.70;0.60;;;;;;;;;;1492774;39;20028;-58
2021/05/07 01:32:08;;;;;;;0.93;0.50;;;;;;;;;;1492943;39;20020;-58
2021/05/07 01:33:11;;;;;;;1.63;0.60;;;;;;;;;;1492913;39;20492;-58
2021/05/07 01:34:12;;;;;;;1.05;0.70;;;;;;;;;;1492933;39;20406;-58
2021/05/07 01:35:15;;;;;;;1.90;0.77;;;;;;;;;;1492991;39;20081;-57
2021/05/07 01:36:17;;;;;;;2.22;0.80;;;;;;;;;;1492888;39;20414;-57
2021/05/07 01:37:18;;;;;;;1.13;0.60;;;;;;;;;;1492971;39;20031;-58
2021/05/07 01:38:20;;;;;;;2.13;0.70;;;;;;;;;;1492896;39;20028;-57
2021/05/07 01:39:21;;;;;;;1.33;0.60;;;;;;;;;;1493057;39;20032;-58
2021/05/07 01:40:23;;;;;;;2.22;0.70;;;;;;;;;;1492900;39;20024;-58
2021/05/07 01:41:25;;;;;;;2.45;0.70;;;;;;;;;;1493134;39;20035;-58
2021/05/07 01:42:25;;;;;;;1.05;0.50;;;;;;;;;;1493104;39;20023;-58
2021/05/07 01:43:27;;;;;;;1.38;0.73;;;;;;;;;;1493073;39;20082;-58
2021/05/07 01:44:28;;;;;;;2.05;0.60;;;;;;;;;;1492896;39;20307;-58
2021/05/07 01:45:31;;;;;;;2.70;0.68;;;;;;;;;;1492886;39;20024;-58
2021/05/07 01:46:32;;;;;;;1.35;0.60;;;;;;;;;;1493084;39;20031;-58
2021/05/07 01:47:33;;;;;;;1.58;0.70;;;;;;;;;;1492301;39;20407;-58
2021/05/07 01:48:34;;;;;;;2.75;0.77;;;;;;;;;;1492816;39;20035;-58
2021/05/07 01:49:35;;;;;;;4.28;0.80;;;;;;;;;;1492899;39;20288;-58
2021/05/07 01:50:39;;;;;;;1.42;0.68;;;;;;;;;;1492945;39;20031;-58
2021/05/07 01:51:41;;;;;;;2.53;0.60;;;;;;;;;;1493086;39;20027;-58
2021/05/07 01:52:42;;;;;;;1.23;0.50;;;;;;;;;;1493060;39;20036;-58
2021/05/07 01:53:43;;;;;;;2.15;0.60;;;;;;;;;;1492994;39;20027;-58
2021/05/07 01:54:44;;;;;;;1.90;0.70;;;;;;;;;;1493034;39;20035;-58
2021/05/07 01:55:47;;;;;;;1.83;0.85;;;;;;;;;;1492812;39;20024;-58
2021/05/07 01:56:48;;;;;;;1.90;0.60;;;;;;;;;;1492915;39;20035;-58
2021/05/07 01:57:49;;;;;;;1.00;0.60;;;;;;;;;;1492878;39;20039;-58
2021/05/07 01:58:50;;;;;;;2.15;0.57;;;;;;;;;;1492836;39;20299;-59
2021/05/07 01:59:51;;;;;;;2.85;0.90;;;;;;;;;;1492835;39;20027;-57
2021/05/07 02:00:52;;;;;;;1.80;0.70;;;;;;;;;;1492831;39;20033;-57
2021/05/07 02:01:54;;;;;;;1.67;0.80;;;;;;;;;;1493146;39;20034;-57
2021/05/07 02:02:56;;;;;;;2.38;0.73;;;;;;;;;;1493017;39;20031;-57
2021/05/07 02:03:57;;;;;;;1.77;0.60;;;;;;;;;;1492933;39;20122;-57
2021/05/07 02:04:58;;;;;;;1.75;0.80;;;;;;;;;;1493053;39;20027;-58
2021/05/07 02:05:59;;;;;;;1.17;0.68;;;;;;;;;;1493091;39;20112;-58
2021/05/07 02:07:01;;;;;;;1.65;0.80;;;;;;;;;;1493061;39;20036;-58
2021/05/07 02:08:04;;;;;;;1.67;0.98;;;;;;;;;;1492806;39;20116;-58
2021/05/07 02:09:05;;;;;;;3.25;0.75;;;;;;;;;;1492988;39;20067;-58
2021/05/07 02:10:09;;;;;;;1.65;0.65;;;;;;;;;;1492979;39;20035;-58
2021/05/07 02:11:09;;;;;;;3.03;0.70;;;;;;;;;;1493041;39;20100;-58
2021/05/07 02:12:11;;;;;;;2.45;0.80;;;;;;;;;;1492869;39;20353;-58
2021/05/07 02:13:12;;;;;;;1.45;0.68;;;;;;;;;;1492850;39;20032;-58
2021/05/07 02:14:14;;;;;;;1.98;0.68;;;;;;;;;;1492870;39;20071;-58
2021/05/07 02:15:17;;;;;;;2.38;0.82;;;;;;;;;;1492998;39;20024;-58
2021/05/07 02:16:18;;;;;;;1.13;0.73;;;;;;;;;;1493065;39;20032;-58
2021/05/07 02:17:19;;;;;;;1.30;0.65;;;;;;;;;;1492989;39;20024;-58
2021/05/07 02:18:24;;;;;;;2.17;0.90;;;;;;;;;;1492774;39;20035;-58
2021/05/07 02:19:25;;;;;;;2.47;0.70;;;;;;;;;;1492887;39;20027;-57
2021/05/07 02:20:28;;;;;;;1.63;0.77;;;;;;;;;;1492831;39;20043;-57
2021/05/07 02:21:30;;;;;;;3.10;0.82;;;;;;;;;;1492875;39;20024;-57
2021/05/07 02:22:32;;;;;;;2.35;0.80;;;;;;;;;;1492804;39;20520;-58
2021/05/07 02:23:33;;;;;;;1.85;0.70;;;;;;;;;;1492757;39;20291;-58
2021/05/07 02:24:34;;;;;;;4.70;1.00;;;;;;;;;;1492790;39;20031;-58
2021/05/07 02:25:35;;;;;;;2.22;0.82;;;;;;;;;;1492802;39;20035;-58
2021/05/07 02:26:37;;;;;;;2.85;0.73;;;;;;;;;;1492223;39;20028;-58
2021/05/07 02:27:38;;;;;;;2.10;0.77;;;;;;;;;;1488185;39;20024;-58
2021/05/07 02:28:39;;;;;;;1.65;0.68;;;;;;;;;;1492351;39;20051;-57
2021/05/07 02:29:40;;;;;;;1.48;0.60;;;;;;;;;;1492946;39;20044;-58
2021/05/07 02:30:41;;;;;;;2.63;0.77;;;;;;;;;;1492964;39;20377;-58
2021/05/07 02:31:42;;;;;;;2.40;0.80;;;;;;;;;;1492953;39;20032;-59
2021/05/07 02:32:44;;;;;;;1.92;0.73;;;;;;;;;;1492717;39;20032;-58
2021/05/07 02:33:45;;;;;;;0.98;0.55;;;;;;;;;;1492719;39;20401;-58
2021/05/07 02:34:47;;;;;;;3.75;0.93;;;;;;;;;;1492734;39;20024;-58
2021/05/07 02:35:48;;;;;;;2.13;0.82;;;;;;;;;;1492947;39;20027;-58
2021/05/07 02:36:49;;;;;;;3.08;0.80;;;;;;;;;;1492778;39;20028;-58
2021/05/07 02:37:51;;;;;;;1.58;0.70;;;;;;;;;;1492796;39;20264;-58
2021/05/07 02:38:52;;;;;;;2.92;0.80;;;;;;;;;;1492888;39;20032;-58
2021/05/07 02:39:53;;;;;;;1.77;0.80;;;;;;;;;;1492892;39;20035;-58
2021/05/07 02:40:54;;;;;;;2.40;1.00;;;;;;;;;;1492682;39;20391;-58
2021/05/07 02:41:55;;;;;;;4.45;0.98;;;;;;;;;;1493005;39;20027;-58
2021/05/07 02:42:56;;;;;;;2.97;0.63;;;;;;;;;;1492885;39;20039;-58
2021/05/07 02:43:57;;;;;;;1.98;0.70;;;;;;;;;;1492861;39;20023;-57
2021/05/07 02:45:02;;;;;;;1.80;0.95;;;;;;;;;;1492686;39;20058;-57
2021/05/07 02:46:03;;;;;;;2.85;0.80;;;;;;;;;;1492786;39;20105;-57
2021/05/07 02:47:04;;;;;;;1.88;0.70;;;;;;;;;;1492731;39;20384;-58
2021/05/07 02:48:05;;;;;;;2.83;1.00;;;;;;;;;;1492751;39;20027;-58
2021/05/07 02:49:07;;;;;;;2.28;0.90;;;;;;;;;;1492817;39;20039;-57
2021/05/07 02:50:10;;;;;;;3.42;1.00;;;;;;;;;;1492565;39;20032;-58
2021/05/07 02:51:11;;;;;;;1.75;0.88;;;;;;;;;;1492881;39;20028;-58
2021/05/07 02:52:12;;;;;;;2.08;0.98;;;;;;;;;;1492832;39;20027;-58
2021/05/07 02:53:14;;;;;;;2.88;1.02;;;;;;;;;;1492846;39;20035;-58
2021/05/07 02:54:15;;;;;;;2.20;0.80;;;;;;;;;;1492853;39;20116;-58
2021/05/07 02:55:16;;;;;;;2.47;0.80;;;;;;;;;;1492770;39;20124;-58
2021/05/07 02:56:17;;;;;;;3.80;1.00;;;;;;;;;;1492859;39;20028;-57
2021/05/07 02:57:18;;;;;;;3.13;0.90;;;;;;;;;;1492663;39;20303;-58
2021/05/07 02:58:19;;;;;;;2.55;0.98;;;;;;;;;;1492665;39;20128;-57
2021/05/07 02:59:22;;;;;;;3.72;1.10;;;;;;;;;;1493056;39;20097;-57
2021/05/07 03:00:23;;;;;;;2.13;0.82;;;;;;;;;;1493302;39;20028;-57
2021/05/07 03:01:24;;;;;;;3.63;0.82;;;;;;;;;;1493316;39;20359;-58
2021/05/07 03:02:25;;;;;;;2.55;0.90;;;;;;;;;;1493341;39;20024;-57
2021/05/07 03:03:26;;;;;;;2.05;0.80;;;;;;;;;;1493342;39;20398;-58
2021/05/07 03:04:27;;;;;;;1.55;0.77;;;;;;;;;;1493325;39;20023;-58
2021/05/07 03:05:29;;;;;;;2.83;0.90;;;;;;;;;;1493528;39;20383;-58
2021/05/07 03:06:29;;;;;;;2.58;1.13;;;;;;;;;;1493261;39;20303;-58
2021/05/07 03:07:31;;;;;;;3.05;1.00;;;;;;;;;;1493487;39;20028;-58
2021/05/07 03:08:32;;;;;;;3.47;0.80;;;;;;;;;;1493467;39;20311;-58
2021/05/07 03:09:34;;;;;;;2.60;0.90;;;;;;;;;;1493424;39;20047;-58
2021/05/07 03:10:35;;;;;;;2.63;0.98;;;;;;;;;;1493314;39;20302;-58
2021/05/07 03:11:36;;;;;;;2.83;0.85;;;;;;;;;;1493301;39;20085;-58
2021/05/07 03:12:37;;;;;;;4.55;1.00;;;;;;;;;;1493329;39;20039;-58
2021/05/07 03:13:38;;;;;;;1.83;0.70;;;;;;;;;;1493223;39;20039;-58
2021/05/07 03:14:39;;;;;;;3.05;0.80;;;;;;;;;;1493298;39;20024;-58
2021/05/07 03:15:40;;;;;;;3.50;0.80;;;;;;;;;;1493460;39;20038;-58
2021/05/07 03:16:41;;;;;;;3.10;0.80;;;;;;;;;;1493285;39;20311;-58
2021/05/07 03:17:42;;;;;;;2.15;0.90;;;;;;;;;;1492716;39;20024;-58
2021/05/07 03:18:43;;;;;;;4.15;1.10;;;;;;;;;;1492786;39;20297;-58
2021/05/07 03:19:44;;;;;;;2.97;0.80;;;;;;;;;;1493401;39;20028;-58
2021/05/07 03:20:46;;;;;;;2.55;0.80;;;;;;;;;;1493436;39;20030;-57
2021/05/07 03:21:48;;;;;;;2.65;1.00;;;;;;;;;;1493407;39;20048;-57
2021/05/07 03:22:49;;;;;;;2.67;0.90;;;;;;;;;;1493445;39;20023;-57
2021/05/07 03:23:51;;;;;;;1.70;0.85;;;;;;;;;;1493346;39;20028;-58
2021/05/07 03:24:52;;;;;;;2.47;1.00;;;;;;;;;;1493255;39;20322;-58
2021/05/07 03:25:53;;;;;;;3.92;1.13;;;;;;;;;;1493209;39;20028;-57
2021/05/07 03:26:54;;;;;;;4.38;1.02;;;;;;;;;;1493406;39;20028;-57
2021/05/07 03:27:55;;;;;;;1.98;0.90;;;;;;;;;;1493309;39;20042;-57
2021/05/07 03:28:56;;;;;;;1.90;0.82;;;;;;;;;;1493162;39;20032;-57
2021/05/07 03:29:57;;;;;;;2.92;1.13;;;;;;;;;;1493344;39;20020;-57
2021/05/07 03:30:58;;;;;;;2.67;0.90;;;;;;;;;;1493215;39;20387;-58
2021/05/07 03:31:59;;;;;;;1.75;0.90;;;;;;;;;;1493228;39;20027;-58
2021/05/07 03:33:02;;;;;;;3.13;0.90;;;;;;;;;;1493404;39;20032;-58
2021/05/07 03:34:04;;;;;;;2.67;1.15;;;;;;;;;;1493358;39;20027;-58
2021/05/07 03:35:06;;;;;;;4.18;1.05;;;;;;;;;;1493373;39;20028;-60
2021/05/07 03:36:07;;;;;;;4.07;0.93;;;;;;;;;;1493393;39;20028;-60
2021/05/07 03:37:08;;;;;;;2.95;0.98;;;;;;;;;;1493105;39;20372;-60
2021/05/07 03:38:09;;;;;;;3.10;1.00;;;;;;;;;;1493242;39;20032;-61
2021/05/07 03:39:11;;;;;;;1.70;0.77;;;;;;;;;;1493159;39;20140;-61
2021/05/07 03:40:13;;;;;;;2.25;0.88;;;;;;;;;;1493401;39;20034;-62
2021/05/07 03:41:14;;;;;;;1.75;0.73;;;;;;;;;;1493207;39;20038;-60
2021/05/07 03:42:15;;;;;;;2.20;0.88;;;;;;;;;;1493293;39;20035;-60
2021/05/07 03:43:16;;;;;;;2.17;0.90;;;;;;;;;;1493365;39;20044;-61
2021/05/07 03:44:17;;;;;;;2.13;0.88;;;;;;;;;;1493410;39;20036;-61
2021/05/07 03:45:18;;;;;;;5.05;1.02;;;;;;;;;;1493155;39;20411;-61
2021/05/07 03:46:20;;;;;;;2.25;0.98;;;;;;;;;;1493189;39;20036;-61
2021/05/07 03:47:20;;;;;;;1.80;0.80;;;;;;;;;;1493189;39;20414;-60
2021/05/07 03:48:23;;;;;;;1.35;0.60;;;;;;;;;;1492676;39;20028;-60
2021/05/07 03:49:24;;;;;;;2.40;0.70;;;;;;;;;;1492647;39;20032;-60
2021/05/07 03:50:25;;;;;;;2.78;0.90;;;;;;;;;;1493167;39;20028;-60
2021/05/07 03:51:27;;;;;;;1.70;0.73;;;;;;;;;;1493138;39;20024;-61
2021/05/07 03:52:28;;;;;;;1.90;0.85;;;;;;;;;;1493164;39;20300;-60
2021/05/07 03:53:29;;;;;;;2.88;0.90;;;;;;;;;;1493139;39;20098;-61
2021/05/07 03:54:31;;;;;;;4.10;1.00;;;;;;;;;;1493324;39;20024;-61
2021/05/07 03:55:32;;;;;;;3.13;1.17;;;;;;;;;;1493188;39;20284;-60
2021/05/07 03:56:33;;;;;;;3.15;1.08;;;;;;;;;;1493326;39;20116;-61
2021/05/07 03:57:34;;;;;;;3.38;1.10;;;;;;;;;;1493235;39;20330;-61
2021/05/07 03:58:35;;;;;;;3.38;1.02;;;;;;;;;;1493146;39;20396;-61
2021/05/07 03:59:37;;;;;;;2.63;0.90;;;;;;;;;;1493227;39;20031;-60
2021/05/07 04:00:38;;;;;;;3.72;1.13;;;;;;;;;;1493202;39;20032;-61
2021/05/07 04:01:40;;;;;;;5.75;1.40;;;;;;;;;;1493124;39;20032;-60
2021/05/07 04:02:40;;;;;;;3.55;1.30;;;;;;;;;;1493134;39;20028;-61
2021/05/07 04:03:42;;;;;;;4.97;1.55;;;;;;;;;;1492732;39;20091;-60
2021/05/07 04:04:44;;;;;;;4.28;1.40;;;;;;;;;;1492896;39;20174;-60
2021/05/07 04:05:49;;;;;;;3.95;1.20;;;;;;;;;;1493145;39;20035;-61
2021/05/07 04:06:50;;;;;;;4.93;1.35;;;;;;;;;;1493406;39;20035;-60
2021/05/07 04:07:59;;;;;;;2.95;1.20;;;;;;;;;;1493136;39;20331;-62
2021/05/07 04:09:04;;;;;;;3.80;1.35;;;;;;;;;;1493075;39;20043;-60
2021/05/07 04:10:14;;;;;;;3.63;1.20;;;;;;;;;;1493201;39;20116;-60
2021/05/07 04:11:23;;;;;;;7.63;1.70;;;;;;;;;;1493048;39;20035;-60
2021/05/07 04:13:30;;;;;;;7.70;1.55;;;;;;;;;;1493309;39;20028;-60
2021/05/07 04:13:52;;;;;;;5.70;1.60;;;;;;;;;;1492971;39;20359;-60
2021/05/07 04:14:53;;;;;;;6.30;1.52;;;;;;;;;;1493130;39;20032;-60
2021/05/07 04:15:54;;;;;;;2.33;1.20;;;;;;;;;;1493181;39;20027;-60
2021/05/07 04:16:55;;;;;;;4.38;1.52;;;;;;;;;;1493281;39;20036;-60
2021/05/07 04:17:56;;;;;;;4.60;1.30;;;;;;;;;;1493203;39;20044;-60
2021/05/07 04:18:57;;;;;;;4.80;1.80;;;;;;;;;;1493220;39;20108;-60
2021/05/07 04:19:58;;;;;;;4.57;1.17;;;;;;;;;;1493091;39;20024;-61
2021/05/07 04:21:00;;;;;;;4.93;1.30;;;;;;;;;;1493113;39;20032;-61
2021/05/07 04:22:01;;;;;;;5.95;1.20;;;;;;;;;;1493093;39;20078;-60
2021/05/07 04:23:02;;;;;;;2.67;1.33;;;;;;;;;;1492549;39;20035;-60
2021/05/07 04:24:04;;;;;;;4.45;1.40;;;;;;;;;;1492598;39;20423;-60
2021/05/07 04:25:08;;;;;;;3.47;1.20;;;;;;;;;;1493151;39;20060;-60
2021/05/07 04:26:09;;;;;;;4.05;1.40;;;;;;;;;;1493262;39;20085;-60
2021/05/07 04:27:10;;;;;;;3.60;1.30;;;;;;;;;;1493249;39;20365;-59
2021/05/07 04:28:11;;;;;;;4.13;1.63;;;;;;;;;;1493270;39;20036;-60
2021/05/07 04:29:13;;;;;;;4.38;1.45;;;;;;;;;;1493086;39;20035;-59
2021/05/07 04:30:15;;;;;;;3.58;1.05;;;;;;;;;;1493274;39;20024;-60
2021/05/07 04:31:16;;;;;;;3.63;1.20;;;;;;;;;;1493169;39;20395;-60
2021/05/07 04:32:17;;;;;;;5.18;1.42;;;;;;;;;;1493226;39;20032;-60
2021/05/07 04:33:18;;;;;;;3.75;1.30;;;;;;;;;;1493232;39;20024;-60
2021/05/07 04:34:19;;;;;;;3.70;1.20;;;;;;;;;;1493026;39;20024;-59
2021/05/07 04:35:20;;;;;;;2.05;1.02;;;;;;;;;;1493229;39;20028;-60
2021/05/07 04:36:21;;;;;;;3.75;1.33;;;;;;;;;;1493063;39;20032;-61
2021/05/07 04:37:22;;;;;;;4.72;1.42;;;;;;;;;;1493024;39;20024;-61
2021/05/07 04:38:23;;;;;;;3.35;1.30;;;;;;;;;;1493022;39;20024;-61
2021/05/07 04:39:25;;;;;;;4.50;1.30;;;;;;;;;;1493069;39;20047;-60
2021/05/07 04:40:26;;;;;;;2.97;1.10;;;;;;;;;;1493045;39;20046;-61
2021/05/07 04:41:28;;;;;;;5.28;1.30;;;;;;;;;;1493095;39;20040;-61
2021/05/07 04:42:28;;;;;;;5.03;1.55;;;;;;;;;;1493234;39;20121;-61
2021/05/07 04:43:30;;;;;;;3.42;1.20;;;;;;;;;;1493063;39;20043;-60
2021/05/07 04:44:31;;;;;;;4.10;1.25;;;;;;;;;;1493182;39;20027;-61
2021/05/07 04:45:33;;;;;;;4.32;1.30;;;;;;;;;;1492990;39;20050;-60
2021/05/07 04:46:34;;;;;;;2.40;1.20;;;;;;;;;;1493078;39;20384;-60
2021/05/07 04:47:35;;;;;;;3.22;1.50;;;;;;;;;;1493026;39;20077;-60
2021/05/07 04:48:36;;;;;;;3.00;1.25;;;;;;;;;;1493184;39;20036;-61
2021/05/07 04:49:37;;;;;;;4.13;1.30;;;;;;;;;;1492978;39;20385;-60
2021/05/07 04:50:39;;;;;;;3.40;1.33;;;;;;;;;;1493032;39;20044;-60
2021/05/07 04:51:40;;;;;;;3.53;1.40;;;;;;;;;;1493188;39;20028;-61
2021/05/07 04:52:41;;;;;;;3.88;1.40;;;;;;;;;;1493021;39;20381;-60
2021/05/07 04:53:42;;;;;;;3.88;1.58;;;;;;;;;;1492987;39;21855;-60
2021/05/07 04:54:43;;;;;;;3.90;1.30;;;;;;;;;;1493234;39;20034;-60
2021/05/07 04:55:45;;;;;;;5.07;1.40;;;;;;;;;;1492998;39;20030;-61
2021/05/07 04:56:47;;;;;;;3.97;1.40;;;;;;;;;;1493208;39;20075;-61
2021/05/07 04:57:48;;;;;;;4.60;1.15;;;;;;;;;;1493088;39;20115;-61
2021/05/07 04:58:49;;;;;;;4.75;1.30;;;;;;;;;;1492927;39;20356;-60
2021/05/07 04:59:50;;;;;;;3.65;1.23;;;;;;;;;;1493034;39;20300;-61
2021/05/07 05:00:51;;;;;;;3.25;1.10;;;;;;;;;;1493019;39;20031;-61
2021/05/07 05:01:52;;;;;;;3.22;1.10;;;;;;;;;;1492987;39;20024;-61
2021/05/07 05:02:54;;;;;;;3.17;1.10;;;;;;;;;;1493181;39;20032;-61
2021/05/07 05:03:54;;;;;;;4.35;1.10;;;;;;;;;;1493150;39;20040;-61
2021/05/07 05:04:56;;;;;;;2.50;0.93;;;;;;;;;;1493191;39;20277;-62
2021/05/07 05:05:57;;;;;;;3.13;1.10;;;;;;;;;;1493163;39;20112;-61
2021/05/07 05:06:59;;;;;;;1.88;1.00;;;;;;;;;;1493023;39;20405;-61
2021/05/07 05:07:59;;;;;;;3.90;1.15;;;;;;;;;;1492950;39;20066;-61
2021/05/07 05:09:01;;;;;;;3.97;1.20;;;;;;;;;;1493196;39;20038;-61
2021/05/07 05:10:02;;;;;;;2.92;0.90;;;;;;;;;;1493039;39;20019;-61
2021/05/07 05:11:05;;;;;;;4.53;1.20;;;;;;;;;;1493002;39;20039;-60
2021/05/07 05:12:06;;;;;;;2.03;0.90;;;;;;;;;;1492997;39;20023;-61
2021/05/07 05:13:08;;;;;;;2.78;1.00;;;;;;;;;;1492995;39;20028;-61
2021/05/07 05:14:17;;;;;;;2.60;0.85;;;;;;;;;;1492963;39;20048;-60
2021/05/07 05:15:19;;;;;;;2.20;1.00;;;;;;;;;;1493143;39;20048;-61
2021/05/07 05:16:31;;;;;;;3.55;0.80;;;;;;;;;;1493044;39;20024;-60
2021/05/07 05:17:32;;;;;;;2.70;0.90;;;;;;;;;;1493025;39;20031;-60
2021/05/07 05:18:34;;;;;;;1.60;0.70;;;;;;;;;;1493126;39;20032;-60
2021/05/07 05:19:35;;;;;;;3.70;1.20;;;;;;;;;;1493069;39;20040;-60
2021/05/07 05:20:36;;;;;;;4.35;1.00;;;;;;;;;;1492962;39;20272;-60
2021/05/07 05:21:37;;;;;;;3.38;1.20;;;;;;;;;;1492926;39;20038;-60
2021/05/07 05:22:38;;;;;;;2.35;1.00;;;;;;;;;;1492949;39;20046;-61
2021/05/07 05:23:41;;;;;;;3.10;0.90;;;;;;;;;;1492942;39;20038;-60
2021/05/07 05:24:42;;;;;;;3.03;0.85;;;;;;;;;;1492896;39;20039;-60
2021/05/07 05:25:44;;;;;;;3.13;0.80;;;;;;;;;;1492955;39;20035;-60
2021/05/07 05:26:45;;;;;;;1.75;0.70;;;;;;;;;;1492970;39;20032;-61
2021/05/07 05:27:47;;;;;;;3.47;0.80;;;;;;;;;;1492937;39;20370;-60
2021/05/07 05:28:47;;;;;;;1.40;0.75;;;;;;;;;;1493096;39;20023;-60
2021/05/07 05:29:49;;;;;;;2.33;1.05;;;;;;;;;;1492894;39;20028;-60
2021/05/07 05:30:49;;;;;;;2.05;0.88;;;;;;;;;;1492948;39;20295;-61
2021/05/07 05:31:51;;;;;;;3.50;0.80;;;;;;;;;;1493012;39;20027;-60
2021/05/07 05:32:51;;;;;;;2.30;0.88;;;;;;;;;;1492891;39;20112;-60
2021/05/07 05:33:53;;;;;;;1.88;0.60;;;;;;;;;;1493083;39;20113;-60
2021/05/07 05:34:54;;;;;;;3.45;0.90;;;;;;;;;;1492949;39;20410;-61
2021/05/07 05:35:55;;;;;;;2.30;0.60;;;;;;;;;;1492965;39;20035;-61
2021/05/07 05:36:56;;;;;;;2.10;0.70;;;;;;;;;;1493080;39;20136;-60
2021/05/07 05:37:57;;;;;;;2.90;0.93;;;;;;;;;;1492886;39;20136;-60
2021/05/07 05:38:58;;;;;;;1.38;0.65;;;;;;;;;;1493005;39;20031;-61
2021/05/07 05:40:00;;;;;;;1.60;0.68;;;;;;;;;;1493091;39;20295;-61
2021/05/07 05:41:01;;;;;;;3.28;0.90;;;;;;;;;;1493088;39;20038;-61
2021/05/07 05:42:04;;;;;;;2.88;0.80;;;;;;;;;;1492951;39;20430;-60
2021/05/07 05:43:05;;;;;;;4.00;1.00;;;;;;;;;;1492917;39;20391;-61
2021/05/07 05:44:07;;;;;;;2.53;0.75;;;;;;;;;;1492941;39;20028;-60
2021/05/07 05:45:09;;;;;;;1.73;0.73;;;;;;;;;;1492899;39;20027;-61
2021/05/07 05:46:11;;;;;;;3.05;0.90;;;;;;;;;;1493107;39;20068;-61
2021/05/07 05:47:12;;;;;;;3.97;1.23;;;;;;;;;;1493026;39;20043;-60
2021/05/07 05:48:14;;;;;;;2.75;0.98;;;;;;;;;;1492872;39;20391;-61
2021/05/07 05:49:15;;;;;;;3.22;1.00;;;;;;;;;;1493035;39;20116;-60
2021/05/07 05:50:16;;;;;;;4.30;1.02;;;;;;;;;;1493147;39;20048;-60
2021/05/07 05:51:17;;;;;;;2.22;1.00;;;;;;;;;;1493119;39;20024;-60
2021/05/07 05:52:18;;;;;;;2.72;1.10;;;;;;;;;;1492857;39;20410;-60
2021/05/07 05:53:20;;;;;;;3.92;1.00;;;;;;;;;;1493084;39;20074;-60
2021/05/07 05:54:22;;;;;;;3.33;1.27;;;;;;;;;;1492917;39;20028;-60
2021/05/07 05:55:23;;;;;;;4.32;1.30;;;;;;;;;;1493019;39;20043;-61
2021/05/07 05:56:24;;;;;;;3.72;1.27;;;;;;;;;;1493088;39;20039;-60
2021/05/07 05:57:26;;;;;;;2.83;1.00;;;;;;;;;;1492886;39;20059;-60
2021/05/07 05:58:30;;;;;;;3.75;1.17;;;;;;;;;;1493118;39;20137;-60
2021/05/07 05:59:32;;;;;;;2.92;1.02;;;;;;;;;;1492793;39;20039;-60
2021/05/07 06:00:33;;;;;;;4.70;1.27;;;;;;;;;;1493016;39;20028;-60
2021/05/07 06:01:34;;;;;;;1.48;0.90;;;;;;;;;;1493120;39;20047;-61
2021/05/07 06:02:35;;;;;;;3.58;1.23;;;;;;;;;;1493059;39;20035;-60
2021/05/07 06:03:36;;;;;;;4.38;1.10;;;;;;;;;;1492801;39;20024;-61
2021/05/07 06:04:37;;;;;;;2.28;0.95;;;;;;;;;;1492983;39;20024;-61
2021/05/07 06:05:38;;;;;;;3.25;0.90;;;;;;;;;;1492790;39;20303;-61
2021/05/07 06:06:39;;;;;;;2.65;1.08;;;;;;;;;;1493027;39;20040;-61
2021/05/07 06:07:41;;;;;;;2.15;0.98;;;;;;;;;;1492855;39;20312;-60
2021/05/07 06:08:42;;;;;;;3.58;1.10;;;;;;;;;;1493118;39;20039;-61
2021/05/07 06:09:43;;;;;;;5.72;1.63;;;;;;;;;;1492901;39;20058;-60